createdAt,value
2023-03-17T00:01:44.646Z,90.50
2023-03-17T00:04:12.681Z,90.40
2023-03-17T00:06:40.311Z,90.40
2023-03-17T00:09:18.906Z,90.50
2023-03-17T00:11:46.641Z,90.40
2023-03-17T00:14:14.101Z,90.40
2023-03-17T00:16:45.854Z,90.70
2023-03-17T00:19:18.306Z,91.50
2023-03-17T00:21:46.916Z,91.20
2023-03-17T00:24:15.231Z,92.20
2023-03-17T00:26:43.106Z,92.30
2023-03-17T00:29:09.801Z,92.10
2023-03-17T00:31:37.820Z,91.60
2023-03-17T00:34:05.594Z,91.40
2023-03-17T00:36:34.288Z,92.50
2023-03-17T00:39:01.378Z,91.50
2023-03-17T00:41:29.297Z,91.70
2023-03-17T00:43:55.927Z,92.40
2023-03-17T00:46:35.383Z,91.20
2023-03-17T00:49:05.176Z,91.40
2023-03-17T00:51:32.135Z,90.80
2023-03-17T00:53:58.676Z,91.20
2023-03-17T00:56:25.408Z,91.30
2023-03-17T00:58:52.133Z,91.40
2023-03-17T01:01:18.799Z,91.60
2023-03-17T01:03:45.880Z,92.00
2023-03-17T01:06:14.597Z,91.30
2023-03-17T01:08:42.255Z,91.10
2023-03-17T01:11:18.707Z,91.30
2023-03-17T01:13:46.480Z,91.40
2023-03-17T01:16:13.899Z,91.30
2023-03-17T01:18:40.676Z,91.30
2023-03-17T01:21:07.805Z,91.50
2023-03-17T01:23:34.475Z,91.40
2023-03-17T01:26:01.539Z,91.40
2023-03-17T01:28:28.182Z,91.40
2023-03-17T01:30:55.299Z,91.40
2023-03-17T01:33:22.180Z,91.10
2023-03-17T01:35:50.865Z,90.50
2023-03-17T01:38:17.942Z,90.70
2023-03-17T01:40:52.404Z,90.40
2023-03-17T01:43:30.609Z,90.50
2023-03-17T01:46:31.884Z,90.30
2023-03-17T01:49:24.884Z,90.30
2023-03-17T01:52:00.777Z,90.30
2023-03-17T01:54:36.180Z,90.40
2023-03-17T01:57:19.919Z,90.70
2023-03-17T01:59:52.035Z,90.70
2023-03-17T02:02:30.782Z,90.70
2023-03-17T02:04:58.012Z,90.30
2023-03-17T02:07:26.613Z,90.50
2023-03-17T02:09:54.643Z,90.00
2023-03-17T02:12:24.481Z,90.00
2023-03-17T02:14:52.654Z,90.80
2023-03-17T02:17:21.088Z,90.50
2023-03-17T02:19:48.126Z,90.20
2023-03-17T02:22:16.860Z,89.70
2023-03-17T02:24:48.539Z,90.10
2023-03-17T02:27:31.020Z,90.20
2023-03-17T02:29:58.071Z,90.20
2023-03-17T02:32:24.634Z,90.10
2023-03-17T02:34:51.285Z,90.30
2023-03-17T02:37:19.498Z,90.50
2023-03-17T02:39:46.779Z,90.30
2023-03-17T02:42:13.902Z,91.00
2023-03-17T02:44:40.652Z,91.90
2023-03-17T02:47:08.596Z,92.70
2023-03-17T02:49:37.284Z,93.40
2023-03-17T02:52:04.583Z,91.90
2023-03-17T02:54:31.789Z,93.30
2023-03-17T02:56:59.101Z,92.20
2023-03-17T02:59:25.758Z,92.60
2023-03-17T03:01:52.541Z,92.50
2023-03-17T03:04:20.080Z,92.20
2023-03-17T03:06:47.528Z,92.10
2023-03-17T03:09:14.753Z,92.20
2023-03-17T03:11:41.491Z,91.90
2023-03-17T03:14:08.437Z,92.50
2023-03-17T03:16:35.150Z,93.10
2023-03-17T03:19:02.184Z,94.90
2023-03-17T03:21:28.951Z,94.20
2023-03-17T03:23:55.693Z,95.00
2023-03-17T03:26:22.442Z,95.70
2023-03-17T03:28:49.564Z,95.90
2023-03-17T03:31:16.608Z,95.80
2023-03-17T03:33:44.371Z,95.60
2023-03-17T03:36:11.403Z,96.90
2023-03-17T03:38:39.208Z,97.40
2023-03-17T03:41:06.273Z,96.50
2023-03-17T03:43:32.972Z,96.50
2023-03-17T03:45:59.701Z,96.90
2023-03-17T03:48:26.548Z,97.40
2023-03-17T03:51:00.358Z,97.80
2023-03-17T03:53:28.280Z,97.70
2023-03-17T03:55:55.922Z,98.10
2023-03-17T03:58:23.265Z,97.80
2023-03-17T04:00:50.492Z,97.00
2023-03-17T04:03:17.158Z,96.60
2023-03-17T04:05:43.738Z,97.80
2023-03-17T04:08:11.263Z,98.90
2023-03-17T04:10:37.841Z,99.20
2023-03-17T04:13:04.430Z,99.80
2023-03-17T04:15:31.320Z,99.70
2023-03-17T04:17:57.993Z,99.90
2023-03-17T04:20:24.612Z,99.90
2023-03-17T04:22:51.757Z,99.90
2023-03-17T04:25:18.564Z,99.90
2023-03-17T04:27:45.156Z,99.90
2023-03-17T04:30:16.802Z,99.90
2023-03-17T04:32:44.677Z,99.90
2023-03-17T04:35:17.252Z,99.90
2023-03-17T04:37:43.873Z,99.90
2023-03-17T04:40:13.284Z,99.90
2023-03-17T04:42:40.530Z,99.90
2023-03-17T04:45:14.612Z,99.90
2023-03-17T04:47:41.976Z,99.90
2023-03-17T04:50:09.489Z,99.90
2023-03-17T04:52:36.802Z,99.90
2023-03-17T04:55:05.047Z,99.90
2023-03-17T04:57:31.799Z,99.90
2023-03-17T04:59:58.345Z,99.90
2023-03-17T05:02:26.250Z,99.90
2023-03-17T05:04:53.425Z,99.90
2023-03-17T05:07:20.089Z,99.90
2023-03-17T05:09:47.440Z,99.90
2023-03-17T05:12:14.723Z,99.90
2023-03-17T05:14:41.503Z,99.90
2023-03-17T05:17:08.426Z,99.90
2023-03-17T05:19:35.302Z,99.90
2023-03-17T05:22:01.875Z,99.90
2023-03-17T05:24:28.497Z,99.90
2023-03-17T05:26:55.123Z,99.90
2023-03-17T05:29:21.764Z,99.90
2023-03-17T05:31:48.732Z,99.90
2023-03-17T05:34:15.892Z,99.90
2023-03-17T05:36:43.459Z,99.90
2023-03-17T05:39:10.017Z,99.90
2023-03-17T05:41:36.747Z,99.90
2023-03-17T05:44:03.424Z,99.90
2023-03-17T05:46:30.609Z,99.90
2023-03-17T05:48:57.277Z,99.90
2023-03-17T05:51:23.915Z,99.90
2023-03-17T05:53:50.574Z,99.90
2023-03-17T05:56:17.159Z,99.90
2023-03-17T05:58:43.775Z,99.90
2023-03-17T06:01:10.336Z,99.90
2023-03-17T06:03:38.556Z,99.90
2023-03-17T06:06:05.865Z,99.90
2023-03-17T06:08:32.455Z,99.90
2023-03-17T06:10:59.146Z,99.90
2023-03-17T06:13:25.715Z,99.90
2023-03-17T06:15:52.356Z,99.90
2023-03-17T06:18:19.755Z,99.90
2023-03-17T06:20:46.851Z,99.90
2023-03-17T06:23:13.556Z,99.90
2023-03-17T06:25:40.277Z,99.90
2023-03-17T06:28:07.002Z,99.90
2023-03-17T06:30:34.963Z,99.90
2023-03-17T06:33:02.200Z,99.90
2023-03-17T06:35:30.144Z,99.90
2023-03-17T06:37:56.968Z,99.90
2023-03-17T06:40:23.928Z,99.90
2023-03-17T06:42:50.944Z,99.90
2023-03-17T06:45:18.066Z,99.90
2023-03-17T06:47:44.717Z,99.30
2023-03-17T06:50:12.109Z,99.10
2023-03-17T06:52:39.301Z,97.80
2023-03-17T06:55:07.242Z,96.90
2023-03-17T06:57:34.352Z,99.00
2023-03-17T07:00:01.052Z,95.90
2023-03-17T07:02:27.931Z,95.30
2023-03-17T07:04:54.808Z,92.50
2023-03-17T07:07:21.813Z,90.60
2023-03-17T07:09:48.422Z,84.10
2023-03-17T07:12:15.664Z,81.30
2023-03-17T07:14:42.330Z,71.90
2023-03-17T07:17:12.978Z,69.80
2023-03-17T07:19:40.573Z,62.00
2023-03-17T07:22:09.410Z,61.30
2023-03-17T07:24:36.180Z,52.50
2023-03-17T07:27:02.823Z,50.90
2023-03-17T07:29:29.492Z,51.10
2023-03-17T07:31:56.119Z,52.20
2023-03-17T07:34:23.144Z,52.10
2023-03-17T07:36:49.729Z,51.10
2023-03-17T07:39:17.821Z,49.10
2023-03-17T07:41:44.487Z,43.90
2023-03-17T07:44:11.300Z,41.80
2023-03-17T07:46:38.824Z,40.30
2023-03-17T07:49:05.987Z,42.40
2023-03-17T07:51:33.111Z,45.60
2023-03-17T07:54:03.894Z,47.20
2023-03-17T07:56:32.378Z,47.50
2023-03-17T07:58:59.775Z,47.90
2023-03-17T08:01:27.739Z,46.30
2023-03-17T08:03:56.595Z,42.50
2023-03-17T08:06:25.391Z,38.60
2023-03-17T08:08:53.684Z,36.90
2023-03-17T08:11:21.034Z,35.10
2023-03-17T08:13:48.107Z,33.60
2023-03-17T08:16:14.719Z,34.20
2023-03-17T08:18:41.531Z,35.00
2023-03-17T08:21:08.302Z,35.00
2023-03-17T08:23:35.331Z,37.00
2023-03-17T08:26:04.047Z,38.40
2023-03-17T08:28:31.261Z,38.10
2023-03-17T08:31:10.377Z,36.10
2023-03-17T08:33:40.362Z,32.30
2023-03-17T08:36:09.340Z,32.10
2023-03-17T08:38:37.874Z,31.50
2023-03-17T08:41:08.508Z,32.40
2023-03-17T08:43:37.173Z,32.40
2023-03-17T08:46:12.773Z,33.50
2023-03-17T08:48:39.666Z,32.90
2023-03-17T08:51:06.942Z,32.90
2023-03-17T08:53:34.854Z,31.20
2023-03-17T08:56:04.570Z,29.50
2023-03-17T08:58:31.278Z,31.00
2023-03-17T09:01:02.732Z,30.30
2023-03-17T09:03:30.554Z,30.10
2023-03-17T09:05:58.050Z,29.20
2023-03-17T09:08:26.369Z,29.00
2023-03-17T09:10:53.267Z,29.20
2023-03-17T09:13:21.893Z,31.00
2023-03-17T09:15:50.668Z,31.40
2023-03-17T09:18:21.389Z,28.90
2023-03-17T09:20:48.678Z,27.50
2023-03-17T09:23:15.838Z,28.00
2023-03-17T09:25:42.819Z,30.00
2023-03-17T09:28:11.830Z,30.00
2023-03-17T09:30:42.526Z,29.50
2023-03-17T09:33:13.879Z,30.20
2023-03-17T09:35:40.997Z,30.80
2023-03-17T09:38:08.557Z,30.40
2023-03-17T09:41:00.297Z,29.40
2023-03-17T09:43:41.561Z,29.80
2023-03-17T09:46:27.343Z,31.90
2023-03-17T09:49:03.830Z,34.50
2023-03-17T09:51:32.580Z,35.30
2023-03-17T09:54:05.188Z,34.50
2023-03-17T09:56:34.182Z,33.80
2023-03-17T09:59:22.442Z,32.50
2023-03-17T10:01:50.245Z,34.30
2023-03-17T10:04:18.929Z,33.80
2023-03-17T10:06:49.525Z,33.80
2023-03-17T10:09:32.970Z,34.90
2023-03-17T10:12:32.085Z,35.80
2023-03-17T10:15:03.413Z,34.70
2023-03-17T10:17:41.366Z,34.30
2023-03-17T10:20:12.174Z,33.20
2023-03-17T10:22:41.780Z,34.00
2023-03-17T10:25:18.894Z,36.40
2023-03-17T10:27:55.631Z,37.00
2023-03-17T10:30:23.883Z,35.50
2023-03-17T10:32:52.371Z,34.80
2023-03-17T10:35:19.811Z,34.10
2023-03-17T10:37:47.579Z,34.10
2023-03-17T10:40:32.440Z,32.90
2023-03-17T10:43:07.827Z,31.70
2023-03-17T10:45:40.647Z,32.70
2023-03-17T10:48:09.886Z,32.30
2023-03-17T10:50:39.711Z,32.50
2023-03-17T10:53:27.720Z,32.80
2023-03-17T10:55:59.458Z,31.70
2023-03-17T10:58:37.332Z,31.20
2023-03-17T11:01:08.546Z,31.70
2023-03-17T11:03:40.324Z,32.40
2023-03-17T11:06:12.665Z,33.20
2023-03-17T11:08:49.421Z,32.90
2023-03-17T11:11:42.814Z,32.70
2023-03-17T11:14:18.683Z,33.20
2023-03-17T11:16:56.867Z,34.10
2023-03-17T11:19:44.048Z,32.00
2023-03-17T11:22:33.361Z,33.80
2023-03-17T11:25:11.432Z,34.30
2023-03-17T11:27:49.278Z,35.10
2023-03-17T11:30:32.219Z,34.10
2023-03-17T11:33:06.034Z,34.20
2023-03-17T11:36:03.861Z,33.80
2023-03-17T11:38:34.481Z,36.70
2023-03-17T11:41:22.526Z,36.30
2023-03-17T11:44:13.449Z,36.10
2023-03-17T11:46:50.566Z,35.50
2023-03-17T11:49:22.665Z,37.00
2023-03-17T11:52:07.144Z,35.90
2023-03-17T11:54:34.262Z,36.90
2023-03-17T11:57:04.853Z,36.20
2023-03-17T12:00:01.451Z,37.90
2023-03-17T12:02:45.821Z,37.40
2023-03-17T12:05:24.185Z,38.40
2023-03-17T12:08:04.353Z,38.80
2023-03-17T12:10:41.134Z,38.40
2023-03-17T12:13:14.663Z,37.80
2023-03-17T12:15:51.089Z,38.90
2023-03-17T12:18:32.805Z,38.50
2023-03-17T12:21:32.788Z,38.70
2023-03-17T12:24:05.481Z,37.70
2023-03-17T12:26:41.209Z,35.90
2023-03-17T12:29:21.872Z,35.10
2023-03-17T12:32:01.194Z,36.40
2023-03-17T12:34:57.351Z,37.10
2023-03-17T12:37:27.552Z,37.80
2023-03-17T12:40:06.819Z,38.30
2023-03-17T12:42:52.362Z,38.10
2023-03-17T12:45:37.145Z,37.00
2023-03-17T12:48:23.864Z,36.90
2023-03-17T12:51:21.723Z,37.30
2023-03-17T12:53:50.598Z,36.80
2023-03-17T12:56:30.111Z,36.10
2023-03-17T12:59:04.061Z,35.60
2023-03-17T13:01:44.471Z,37.20
2023-03-17T13:04:26.447Z,38.30
2023-03-17T13:06:58.352Z,37.90
2023-03-17T13:09:42.355Z,37.50
2023-03-17T13:12:44.359Z,38.30
2023-03-17T13:15:48.928Z,39.50
2023-03-17T13:18:15.475Z,38.90
2023-03-17T13:20:45.816Z,38.80
2023-03-17T13:23:15.651Z,38.90
2023-03-17T13:25:43.874Z,39.30
2023-03-17T13:28:13.615Z,38.30
2023-03-17T13:30:40.137Z,38.90
2023-03-17T13:33:10.062Z,38.30
2023-03-17T13:36:05.202Z,38.60
2023-03-17T13:38:34.897Z,39.00
2023-03-17T13:41:13.053Z,39.00
2023-03-17T13:43:58.056Z,38.70
2023-03-17T13:46:37.475Z,39.50
2023-03-17T13:49:24.087Z,39.80
2023-03-17T13:52:03.358Z,39.70
2023-03-17T13:54:42.393Z,40.10
2023-03-17T13:57:36.228Z,40.50
2023-03-17T14:00:14.961Z,40.40
2023-03-17T14:02:44.583Z,41.80
2023-03-17T14:05:40.543Z,41.30
2023-03-17T14:08:18.371Z,40.00
2023-03-17T14:10:57.068Z,41.40
2023-03-17T14:13:37.545Z,40.70
2023-03-17T14:16:17.090Z,41.30
2023-03-17T14:18:49.605Z,43.70
2023-03-17T14:21:33.161Z,41.30
2023-03-17T14:24:01.947Z,41.60
2023-03-17T14:26:31.047Z,42.10
2023-03-17T14:29:03.410Z,43.30
2023-03-17T14:31:30.394Z,42.60
2023-03-17T14:34:01.289Z,43.00
2023-03-17T14:36:32.835Z,43.90
2023-03-17T14:38:59.514Z,43.10
2023-03-17T14:41:28.270Z,43.70
2023-03-17T14:43:59.519Z,43.80
2023-03-17T14:46:38.035Z,43.20
2023-03-17T14:49:18.896Z,43.90
2023-03-17T14:51:49.583Z,43.50
2023-03-17T14:54:21.183Z,41.70
2023-03-17T14:56:49.392Z,42.90
2023-03-17T14:59:22.071Z,43.60
2023-03-17T15:01:52.965Z,43.20
2023-03-17T15:04:27.965Z,43.90
2023-03-17T15:07:04.379Z,43.90
2023-03-17T15:09:35.303Z,44.10
2023-03-17T15:12:20.731Z,43.80
2023-03-17T15:14:54.087Z,44.90
2023-03-17T15:17:26.115Z,43.80
2023-03-17T15:19:55.070Z,44.00
2023-03-17T15:22:25.946Z,43.80
2023-03-17T15:25:23.550Z,45.40
2023-03-17T15:27:50.637Z,44.60
2023-03-17T15:30:18.274Z,44.00
2023-03-17T15:32:50.660Z,44.30
2023-03-17T15:35:17.531Z,44.40
2023-03-17T15:37:44.648Z,46.20
2023-03-17T15:40:11.945Z,45.50
2023-03-17T15:42:39.554Z,46.30
2023-03-17T15:45:06.613Z,46.40
2023-03-17T15:47:36.625Z,45.90
2023-03-17T15:50:17.795Z,45.90
2023-03-17T15:52:45.765Z,46.50
2023-03-17T15:55:21.601Z,47.60
2023-03-17T15:57:54.685Z,46.90
2023-03-17T16:00:23.991Z,47.10
2023-03-17T16:02:56.132Z,47.40
2023-03-17T16:05:34.114Z,47.90
2023-03-17T16:08:00.724Z,47.90
2023-03-17T16:10:30.822Z,48.20
2023-03-17T16:12:58.300Z,49.30
2023-03-17T16:15:27.988Z,48.50
2023-03-17T16:17:59.041Z,48.90
2023-03-17T16:20:27.168Z,48.90
2023-03-17T16:22:56.947Z,49.10
2023-03-17T16:25:29.239Z,48.90
2023-03-17T16:27:58.024Z,50.10
2023-03-17T16:30:33.678Z,50.40
2023-03-17T16:33:03.592Z,50.00
2023-03-17T16:35:30.557Z,50.50
2023-03-17T16:37:57.147Z,50.90
2023-03-17T16:40:33.049Z,51.40
2023-03-17T16:42:59.691Z,51.10
2023-03-17T16:45:34.882Z,51.40
2023-03-17T16:48:04.242Z,51.80
2023-03-17T16:50:33.592Z,51.80
2023-03-17T16:53:00.567Z,52.50
2023-03-17T16:55:29.037Z,52.50
2023-03-17T16:57:58.916Z,53.10
2023-03-17T17:00:29.959Z,53.10
2023-03-17T17:02:57.411Z,53.60
2023-03-17T17:05:26.745Z,53.80
2023-03-17T17:07:56.236Z,53.80
2023-03-17T17:10:24.820Z,53.50
2023-03-17T17:12:51.928Z,54.10
2023-03-17T17:15:20.413Z,53.80
2023-03-17T17:17:50.919Z,53.60
2023-03-17T17:20:21.788Z,54.10
2023-03-17T17:22:49.053Z,55.00
2023-03-17T17:25:19.367Z,54.00
2023-03-17T17:27:46.815Z,54.80
2023-03-17T17:30:17.167Z,54.70
2023-03-17T17:32:45.284Z,54.70
2023-03-17T17:35:13.243Z,55.30
2023-03-17T17:37:40.082Z,55.50
2023-03-17T17:40:09.100Z,55.60
2023-03-17T17:42:36.001Z,55.70
2023-03-17T17:45:02.602Z,56.00
2023-03-17T17:47:32.217Z,56.80
2023-03-17T17:50:00.765Z,57.60
2023-03-17T17:52:27.373Z,56.40
2023-03-17T17:54:53.933Z,56.60
2023-03-17T17:57:20.688Z,57.60
2023-03-17T17:59:47.227Z,58.70
2023-03-17T18:02:14.003Z,58.30
2023-03-17T18:04:41.411Z,58.80
2023-03-17T18:07:08.152Z,59.30
2023-03-17T18:09:34.998Z,60.30
2023-03-17T18:12:02.136Z,60.00
2023-03-17T18:14:28.703Z,59.90
2023-03-17T18:16:55.373Z,60.80
2023-03-17T18:19:22.546Z,60.70
2023-03-17T18:22:00.187Z,60.20
2023-03-17T18:24:26.843Z,60.20
2023-03-17T18:26:53.424Z,60.10
2023-03-17T18:29:20.025Z,60.80
2023-03-17T18:31:49.276Z,60.70
2023-03-17T18:34:22.761Z,61.00
2023-03-17T18:36:51.001Z,70.80
2023-03-17T18:39:17.922Z,61.90
2023-03-17T18:41:45.054Z,62.00
2023-03-17T18:44:11.794Z,63.70
2023-03-17T18:46:38.543Z,63.30
2023-03-17T18:49:06.283Z,64.00
2023-03-17T18:51:33.496Z,70.20
2023-03-17T18:54:00.148Z,65.80
2023-03-17T18:56:29.108Z,65.70
2023-03-17T18:58:56.500Z,65.80
2023-03-17T19:01:23.794Z,66.30
2023-03-17T19:03:50.766Z,66.40
2023-03-17T19:06:19.631Z,67.70
2023-03-17T19:08:47.300Z,67.40
2023-03-17T19:11:18.321Z,68.50
2023-03-17T19:13:46.295Z,76.70
2023-03-17T19:16:13.411Z,68.20
2023-03-17T19:18:42.247Z,69.30
2023-03-17T19:21:09.516Z,69.20
2023-03-17T19:23:38.030Z,70.00
2023-03-17T19:26:05.447Z,70.60
2023-03-17T19:28:33.090Z,70.50
2023-03-17T19:30:59.773Z,71.70
2023-03-17T19:33:26.532Z,72.20
2023-03-17T19:35:56.015Z,73.40
2023-03-17T19:38:23.917Z,74.70
2023-03-17T19:40:50.697Z,88.70
2023-03-17T19:43:28.990Z,77.70
2023-03-17T19:46:03.982Z,78.60
2023-03-17T19:48:30.846Z,79.70
2023-03-17T19:50:57.478Z,81.10
2023-03-17T19:53:24.235Z,82.10
2023-03-17T19:55:50.909Z,84.80
2023-03-17T19:58:17.508Z,84.70
2023-03-17T20:00:44.093Z,85.50
2023-03-17T20:03:12.490Z,86.90
2023-03-17T20:05:39.225Z,87.20
2023-03-17T20:08:07.684Z,89.60
2023-03-17T20:10:34.269Z,89.80
2023-03-17T20:13:01.575Z,89.00
2023-03-17T20:15:28.456Z,89.80
2023-03-17T20:17:55.172Z,90.20
2023-03-17T20:20:21.810Z,90.50
2023-03-17T20:22:48.356Z,90.60
2023-03-17T20:25:15.416Z,90.60
2023-03-17T20:27:42.352Z,90.50
2023-03-17T20:30:11.992Z,90.60
2023-03-17T20:32:39.075Z,90.90
2023-03-17T20:35:07.984Z,90.20
2023-03-17T20:37:35.459Z,90.00
2023-03-17T20:40:04.616Z,90.40
2023-03-17T20:42:31.322Z,90.50
2023-03-17T20:44:57.952Z,90.70
2023-03-17T20:47:25.043Z,90.20
2023-03-17T20:49:53.029Z,90.30
2023-03-17T20:52:19.860Z,89.60
2023-03-17T20:54:46.709Z,89.40
2023-03-17T20:57:16.533Z,89.10
2023-03-17T20:59:43.799Z,88.60
2023-03-17T21:02:14.955Z,88.80
2023-03-17T21:04:46.442Z,88.40
2023-03-17T21:07:18.255Z,87.80
2023-03-17T21:09:46.620Z,88.20
2023-03-17T21:12:15.896Z,87.20
2023-03-17T21:14:42.897Z,87.60
2023-03-17T21:17:10.940Z,88.30
2023-03-17T21:19:38.141Z,87.10
2023-03-17T21:22:05.442Z,88.40
2023-03-17T21:24:34.923Z,87.30
2023-03-17T21:27:03.651Z,87.70
2023-03-17T21:29:32.102Z,87.70
2023-03-17T21:32:00.438Z,89.10
2023-03-17T21:34:28.716Z,90.10
2023-03-17T21:36:57.093Z,91.20
2023-03-17T21:39:24.457Z,92.20
2023-03-17T21:41:51.426Z,93.40
2023-03-17T21:44:19.071Z,93.80
2023-03-17T21:46:47.804Z,94.20
2023-03-17T21:49:18.702Z,94.50
2023-03-17T21:51:46.659Z,94.70
2023-03-17T21:54:14.222Z,94.70
2023-03-17T21:56:41.517Z,95.10
2023-03-17T21:59:10.964Z,95.30
2023-03-17T22:01:38.936Z,97.60
2023-03-17T22:04:05.928Z,95.70
2023-03-17T22:06:32.871Z,95.80
2023-03-17T22:08:59.866Z,96.20
2023-03-17T22:11:26.616Z,99.60
2023-03-17T22:13:53.188Z,96.80
2023-03-17T22:16:20.008Z,97.20
2023-03-17T22:18:47.516Z,97.20
2023-03-17T22:21:14.761Z,97.30
2023-03-17T22:23:42.417Z,97.50
2023-03-17T22:26:13.281Z,97.50
2023-03-17T22:28:43.950Z,97.70
2023-03-17T22:31:25.761Z,97.70
2023-03-17T22:33:56.142Z,97.90
2023-03-17T22:36:24.523Z,97.70
2023-03-17T22:38:51.436Z,98.20
2023-03-17T22:41:23.572Z,98.10
2023-03-17T22:43:50.938Z,98.50
2023-03-17T22:46:18.512Z,98.70
2023-03-17T22:48:46.550Z,98.70
2023-03-17T22:51:17.219Z,98.90
2023-03-17T22:53:44.533Z,98.80
2023-03-17T22:56:12.516Z,98.70
2023-03-17T22:58:40.264Z,98.60
2023-03-17T23:01:07.796Z,98.90
2023-03-17T23:03:34.742Z,98.80
2023-03-17T23:06:03.748Z,98.50
2023-03-17T23:08:32.087Z,98.90
2023-03-17T23:11:00.984Z,98.80
2023-03-17T23:13:27.714Z,99.30
2023-03-17T23:15:54.644Z,99.10
2023-03-17T23:18:21.445Z,99.00
2023-03-17T23:20:48.630Z,99.00
2023-03-17T23:23:15.697Z,99.20
2023-03-17T23:25:42.561Z,99.50
2023-03-17T23:28:09.674Z,99.50
2023-03-17T23:30:36.921Z,99.70
2023-03-17T23:33:04.779Z,99.80
2023-03-17T23:35:31.876Z,99.90
2023-03-17T23:37:58.668Z,99.90
2023-03-17T23:40:25.252Z,99.90
2023-03-17T23:42:54.258Z,99.90
2023-03-17T23:45:23.105Z,99.90
2023-03-17T23:47:51.462Z,99.90
2023-03-17T23:50:19.333Z,99.90
2023-03-17T23:52:47.091Z,99.90
2023-03-17T23:55:14.575Z,99.90
2023-03-17T23:57:41.533Z,99.90
